KMLB/MLB METAR and TAF weather

Enter ICAO airport designator
Station Type Date Time Source
KMLB METAR 2019/02/16 02:53 UTC NOAA

KMLB 160253Z 00000KT 10SM CLR 18/14 A2994 RMK AO2 SLP136 T01780144 55001


Station Type Date Time Source
KMLB Decoded METAR 2019/02/16 02:53 UTC NOAA

MELBOURNE INTERNATIONAL, FL, United States (KMLB) 28-06N 080-39W 10M
Feb 15, 2019 - 09:53 PM EST / 2019.02.16 0253 UTC
Wind: Calm:0
Visibility: 10 mile(s):0
Sky conditions: clear
Temperature: 64.0 F (17.8 C)
Dew Point: 57.9 F (14.4 C)
Relative Humidity: 80%
Pressure (altimeter): 29.94 in. Hg (1013 hPa)
Pressure tendency: 0.00 inches (0.1 hPa) lower than three hours ago
ob: KMLB 160253Z 00000KT 10SM CLR 18/14 A2994 RMK AO2 SLP136 T01780144 55001
cycle: 3

Station Type Date Time Source
KMLB TAF 2019/02/15 18:22 UTC NOAA

TAF KMLB 151720Z 1518/1618 08007KT P6SM FEW040 SCT250
FM160100 VRB03KT P6SM SCT250
FM161400 24007KT P6SM FEW040 SCT250


Example: see airport list